sensor_id;sensor_type;location;lat;lon;timestamp;P1;durP1;ratioP1;P2;durP2;ratioP2
6497;SDS011;3282;48.358;10.958;2022-07-23T00:01:21;11.32;;;9.40;;
6497;SDS011;3282;48.358;10.958;2022-07-23T00:03:53;17.08;;;9.18;;
6497;SDS011;3282;48.358;10.958;2022-07-23T00:06:21;12.38;;;9.48;;
6497;SDS011;3282;48.358;10.958;2022-07-23T00:08:48;15.07;;;9.35;;
6497;SDS011;3282;48.358;10.958;2022-07-23T00:11:15;16.02;;;9.90;;
6497;SDS011;3282;48.358;10.958;2022-07-23T00:13:42;15.32;;;10.15;;
6497;SDS011;3282;48.358;10.958;2022-07-23T00:16:09;13.95;;;9.45;;
6497;SDS011;3282;48.358;10.958;2022-07-23T00:18:35;17.45;;;10.57;;
6497;SDS011;3282;48.358;10.958;2022-07-23T00:21:02;15.65;;;10.77;;
6497;SDS011;3282;48.358;10.958;2022-07-23T00:23:29;16.70;;;10.85;;
6497;SDS011;3282;48.358;10.958;2022-07-23T00:25:57;15.32;;;10.02;;
6497;SDS011;3282;48.358;10.958;2022-07-23T00:28:23;18.75;;;10.10;;
6497;SDS011;3282;48.358;10.958;2022-07-23T00:30:50;12.95;;;9.50;;
6497;SDS011;3282;48.358;10.958;2022-07-23T00:33:17;12.27;;;9.30;;
6497;SDS011;3282;48.358;10.958;2022-07-23T00:35:43;10.85;;;8.55;;
6497;SDS011;3282;48.358;10.958;2022-07-23T00:38:10;12.15;;;8.65;;
6497;SDS011;3282;48.358;10.958;2022-07-23T00:40:37;12.88;;;7.82;;
6497;SDS011;3282;48.358;10.958;2022-07-23T00:43:05;9.77;;;6.90;;
6497;SDS011;3282;48.358;10.958;2022-07-23T00:45:32;9.30;;;7.00;;
6497;SDS011;3282;48.358;10.958;2022-07-23T00:47:59;10.23;;;7.00;;
6497;SDS011;3282;48.358;10.958;2022-07-23T00:50:26;10.13;;;6.82;;
6497;SDS011;3282;48.358;10.958;2022-07-23T00:52:53;9.68;;;6.75;;
6497;SDS011;3282;48.358;10.958;2022-07-23T00:55:21;9.77;;;7.03;;
6497;SDS011;3282;48.358;10.958;2022-07-23T00:57:48;11.45;;;7.32;;
6497;SDS011;3282;48.358;10.958;2022-07-23T01:00:16;10.07;;;7.10;;
6497;SDS011;3282;48.358;10.958;2022-07-23T01:02:44;10.57;;;6.60;;
6497;SDS011;3282;48.358;10.958;2022-07-23T01:05:13;10.40;;;7.00;;
6497;SDS011;3282;48.358;10.958;2022-07-23T01:07:40;11.02;;;6.50;;
6497;SDS011;3282;48.358;10.958;2022-07-23T01:10:07;8.68;;;6.35;;
6497;SDS011;3282;48.358;10.958;2022-07-23T01:12:55;9.57;;;7.63;;
6497;SDS011;3282;48.358;10.958;2022-07-23T01:15:22;12.50;;;7.93;;
6497;SDS011;3282;48.358;10.958;2022-07-23T01:17:49;10.50;;;7.95;;
6497;SDS011;3282;48.358;10.958;2022-07-23T01:20:16;13.23;;;8.20;;
6497;SDS011;3282;48.358;10.958;2022-07-23T01:22:44;11.95;;;8.15;;
6497;SDS011;3282;48.358;10.958;2022-07-23T01:25:11;12.70;;;8.70;;
6497;SDS011;3282;48.358;10.958;2022-07-23T01:27:41;15.93;;;9.23;;
6497;SDS011;3282;48.358;10.958;2022-07-23T01:30:08;13.73;;;8.85;;
6497;SDS011;3282;48.358;10.958;2022-07-23T01:32:36;14.63;;;8.75;;
6497;SDS011;3282;48.358;10.958;2022-07-23T01:35:03;12.90;;;9.15;;
6497;SDS011;3282;48.358;10.958;2022-07-23T01:37:30;14.98;;;9.48;;
6497;SDS011;3282;48.358;10.958;2022-07-23T01:39:57;14.48;;;9.52;;
6497;SDS011;3282;48.358;10.958;2022-07-23T01:42:24;15.43;;;10.07;;
6497;SDS011;3282;48.358;10.958;2022-07-23T01:44:51;14.65;;;9.90;;
6497;SDS011;3282;48.358;10.958;2022-07-23T01:47:20;17.10;;;10.25;;
6497;SDS011;3282;48.358;10.958;2022-07-23T01:49:50;15.32;;;9.73;;
6497;SDS011;3282;48.358;10.958;2022-07-23T01:52:41;13.68;;;10.02;;
6497;SDS011;3282;48.358;10.958;2022-07-23T01:55:07;12.48;;;9.65;;
6497;SDS011;3282;48.358;10.958;2022-07-23T01:57:36;17.85;;;9.70;;
6497;SDS011;3282;48.358;10.958;2022-07-23T02:00:04;13.38;;;10.05;;
6497;SDS011;3282;48.358;10.958;2022-07-23T02:02:38;11.90;;;9.93;;
6497;SDS011;3282;48.358;10.958;2022-07-23T02:05:05;13.48;;;10.00;;
6497;SDS011;3282;48.358;10.958;2022-07-23T02:07:32;15.25;;;9.63;;
6497;SDS011;3282;48.358;10.958;2022-07-23T02:10:00;13.15;;;9.18;;
6497;SDS011;3282;48.358;10.958;2022-07-23T02:12:27;14.68;;;10.00;;
6497;SDS011;3282;48.358;10.958;2022-07-23T02:14:53;14.43;;;10.32;;
6497;SDS011;3282;48.358;10.958;2022-07-23T02:17:20;14.00;;;10.75;;
6497;SDS011;3282;48.358;10.958;2022-07-23T02:19:46;15.80;;;9.95;;
6497;SDS011;3282;48.358;10.958;2022-07-23T02:22:13;12.82;;;10.75;;
6497;SDS011;3282;48.358;10.958;2022-07-23T02:24:40;11.98;;;10.60;;
6497;SDS011;3282;48.358;10.958;2022-07-23T02:27:06;14.25;;;9.82;;
6497;SDS011;3282;48.358;10.958;2022-07-23T02:29:33;15.65;;;9.80;;
6497;SDS011;3282;48.358;10.958;2022-07-23T02:32:00;12.43;;;10.40;;
6497;SDS011;3282;48.358;10.958;2022-07-23T02:34:27;12.43;;;10.30;;
6497;SDS011;3282;48.358;10.958;2022-07-23T02:36:53;12.70;;;10.65;;
6497;SDS011;3282;48.358;10.958;2022-07-23T02:39:21;13.75;;;9.98;;
6497;SDS011;3282;48.358;10.958;2022-07-23T02:41:47;13.35;;;10.75;;
6497;SDS011;3282;48.358;10.958;2022-07-23T02:44:14;12.05;;;10.30;;
6497;SDS011;3282;48.358;10.958;2022-07-23T02:46:45;16.20;;;11.27;;
6497;SDS011;3282;48.358;10.958;2022-07-23T02:49:12;12.65;;;10.80;;
6497;SDS011;3282;48.358;10.958;2022-07-23T02:51:38;13.90;;;9.98;;
6497;SDS011;3282;48.358;10.958;2022-07-23T02:54:06;17.02;;;10.38;;
6497;SDS011;3282;48.358;10.958;2022-07-23T02:56:34;16.17;;;12.07;;
6497;SDS011;3282;48.358;10.958;2022-07-23T02:59:01;12.80;;;10.65;;
6497;SDS011;3282;48.358;10.958;2022-07-23T03:01:28;14.05;;;10.63;;
6497;SDS011;3282;48.358;10.958;2022-07-23T03:03:55;15.30;;;10.77;;
6497;SDS011;3282;48.358;10.958;2022-07-23T03:06:22;13.13;;;10.00;;
6497;SDS011;3282;48.358;10.958;2022-07-23T03:08:49;13.48;;;9.98;;
6497;SDS011;3282;48.358;10.958;2022-07-23T03:11:15;13.18;;;10.65;;
6497;SDS011;3282;48.358;10.958;2022-07-23T03:13:43;17.67;;;10.82;;
6497;SDS011;3282;48.358;10.958;2022-07-23T03:16:10;18.17;;;10.68;;
6497;SDS011;3282;48.358;10.958;2022-07-23T03:18:36;16.25;;;11.07;;
6497;SDS011;3282;48.358;10.958;2022-07-23T03:21:06;15.20;;;11.48;;
6497;SDS011;3282;48.358;10.958;2022-07-23T03:23:33;13.38;;;11.32;;
6497;SDS011;3282;48.358;10.958;2022-07-23T03:26:00;15.10;;;11.15;;
6497;SDS011;3282;48.358;10.958;2022-07-23T03:28:27;17.75;;;11.15;;
6497;SDS011;3282;48.358;10.958;2022-07-23T03:30:54;15.35;;;11.20;;
6497;SDS011;3282;48.358;10.958;2022-07-23T03:33:20;14.60;;;11.27;;
6497;SDS011;3282;48.358;10.958;2022-07-23T03:35:48;14.93;;;10.75;;
6497;SDS011;3282;48.358;10.958;2022-07-23T03:38:20;14.80;;;9.00;;
6497;SDS011;3282;48.358;10.958;2022-07-23T03:40:47;12.57;;;9.50;;
6497;SDS011;3282;48.358;10.958;2022-07-23T03:43:13;13.38;;;8.77;;
6497;SDS011;3282;48.358;10.958;2022-07-23T03:45:40;13.52;;;9.85;;
6497;SDS011;3282;48.358;10.958;2022-07-23T03:48:07;16.05;;;9.27;;
6497;SDS011;3282;48.358;10.958;2022-07-23T03:50:33;10.88;;;8.65;;
6497;SDS011;3282;48.358;10.958;2022-07-23T03:53:01;10.90;;;8.20;;
6497;SDS011;3282;48.358;10.958;2022-07-23T03:55:27;13.32;;;8.80;;
6497;SDS011;3282;48.358;10.958;2022-07-23T03:57:54;13.60;;;8.70;;
6497;SDS011;3282;48.358;10.958;2022-07-23T04:00:22;17.27;;;8.82;;
6497;SDS011;3282;48.358;10.958;2022-07-23T04:02:49;10.45;;;8.32;;
6497;SDS011;3282;48.358;10.958;2022-07-23T04:05:16;11.80;;;8.98;;
6497;SDS011;3282;48.358;10.958;2022-07-23T04:07:48;13.65;;;8.48;;
6497;SDS011;3282;48.358;10.958;2022-07-23T04:10:14;11.02;;;7.85;;
6497;SDS011;3282;48.358;10.958;2022-07-23T04:12:41;14.15;;;8.43;;
6497;SDS011;3282;48.358;10.958;2022-07-23T04:15:08;10.85;;;7.60;;
6497;SDS011;3282;48.358;10.958;2022-07-23T04:17:35;10.48;;;8.23;;
6497;SDS011;3282;48.358;10.958;2022-07-23T04:20:02;11.85;;;7.82;;
6497;SDS011;3282;48.358;10.958;2022-07-23T04:22:35;10.77;;;7.43;;
6497;SDS011;3282;48.358;10.958;2022-07-23T04:25:02;11.55;;;7.38;;
6497;SDS011;3282;48.358;10.958;2022-07-23T04:27:30;10.82;;;7.45;;
6497;SDS011;3282;48.358;10.958;2022-07-23T04:29:56;9.50;;;7.30;;
6497;SDS011;3282;48.358;10.958;2022-07-23T04:32:23;9.93;;;7.03;;
6497;SDS011;3282;48.358;10.958;2022-07-23T04:34:51;10.52;;;7.00;;
6497;SDS011;3282;48.358;10.958;2022-07-23T04:37:18;10.60;;;7.28;;
6497;SDS011;3282;48.358;10.958;2022-07-23T04:39:44;11.10;;;6.80;;
6497;SDS011;3282;48.358;10.958;2022-07-23T04:42:11;12.48;;;8.02;;
6497;SDS011;3282;48.358;10.958;2022-07-23T04:44:38;9.88;;;6.68;;
6497;SDS011;3282;48.358;10.958;2022-07-23T04:47:05;14.10;;;7.88;;
6497;SDS011;3282;48.358;10.958;2022-07-23T04:49:32;10.77;;;7.60;;
6497;SDS011;3282;48.358;10.958;2022-07-23T04:51:58;10.82;;;7.03;;
6497;SDS011;3282;48.358;10.958;2022-07-23T04:54:25;11.98;;;7.32;;
6497;SDS011;3282;48.358;10.958;2022-07-23T04:56:51;14.10;;;7.85;;
6497;SDS011;3282;48.358;10.958;2022-07-23T04:59:18;11.10;;;7.60;;
6497;SDS011;3282;48.358;10.958;2022-07-23T05:01:48;11.05;;;7.80;;
6497;SDS011;3282;48.358;10.958;2022-07-23T05:04:14;10.00;;;8.27;;
6497;SDS011;3282;48.358;10.958;2022-07-23T05:06:41;10.00;;;7.40;;
6497;SDS011;3282;48.358;10.958;2022-07-23T05:09:08;9.02;;;7.50;;
6497;SDS011;3282;48.358;10.958;2022-07-23T05:11:34;9.38;;;6.95;;
6497;SDS011;3282;48.358;10.958;2022-07-23T05:14:01;11.50;;;6.82;;
6497;SDS011;3282;48.358;10.958;2022-07-23T05:16:28;9.88;;;7.22;;
6497;SDS011;3282;48.358;10.958;2022-07-23T05:18:59;9.38;;;7.00;;
6497;SDS011;3282;48.358;10.958;2022-07-23T05:21:27;9.35;;;7.25;;
6497;SDS011;3282;48.358;10.958;2022-07-23T05:23:53;10.50;;;7.53;;
6497;SDS011;3282;48.358;10.958;2022-07-23T05:26:20;11.65;;;7.07;;
6497;SDS011;3282;48.358;10.958;2022-07-23T05:28:47;11.00;;;7.00;;
6497;SDS011;3282;48.358;10.958;2022-07-23T05:31:16;9.75;;;7.10;;
6497;SDS011;3282;48.358;10.958;2022-07-23T05:33:44;10.63;;;7.35;;
6497;SDS011;3282;48.358;10.958;2022-07-23T05:36:12;14.27;;;7.50;;
6497;SDS011;3282;48.358;10.958;2022-07-23T05:38:44;11.20;;;6.80;;
6497;SDS011;3282;48.358;10.958;2022-07-23T05:41:11;8.93;;;6.75;;
6497;SDS011;3282;48.358;10.958;2022-07-23T05:43:37;9.60;;;6.78;;
6497;SDS011;3282;48.358;10.958;2022-07-23T05:46:09;12.02;;;7.10;;
6497;SDS011;3282;48.358;10.958;2022-07-23T05:48:38;10.15;;;7.63;;
6497;SDS011;3282;48.358;10.958;2022-07-23T05:51:10;10.57;;;7.10;;
6497;SDS011;3282;48.358;10.958;2022-07-23T05:53:37;10.15;;;7.20;;
6497;SDS011;3282;48.358;10.958;2022-07-23T05:56:18;10.40;;;7.50;;
6497;SDS011;3282;48.358;10.958;2022-07-23T05:58:45;9.55;;;7.45;;
6497;SDS011;3282;48.358;10.958;2022-07-23T06:01:14;9.68;;;6.95;;
6497;SDS011;3282;48.358;10.958;2022-07-23T06:03:59;9.00;;;6.50;;
6497;SDS011;3282;48.358;10.958;2022-07-23T06:06:32;10.40;;;7.32;;
6497;SDS011;3282;48.358;10.958;2022-07-23T06:09:00;9.55;;;6.88;;
6497;SDS011;3282;48.358;10.958;2022-07-23T06:11:27;10.93;;;6.70;;
6497;SDS011;3282;48.358;10.958;2022-07-23T06:13:54;8.20;;;6.75;;
6497;SDS011;3282;48.358;10.958;2022-07-23T06:16:26;7.80;;;6.63;;
6497;SDS011;3282;48.358;10.958;2022-07-23T06:18:54;11.85;;;7.82;;
6497;SDS011;3282;48.358;10.958;2022-07-23T06:21:21;11.45;;;8.00;;
6497;SDS011;3282;48.358;10.958;2022-07-23T06:24:07;14.25;;;7.13;;
6497;SDS011;3282;48.358;10.958;2022-07-23T06:26:34;10.32;;;7.72;;
6497;SDS011;3282;48.358;10.958;2022-07-23T06:29:01;14.27;;;7.97;;
6497;SDS011;3282;48.358;10.958;2022-07-23T06:31:28;12.07;;;8.20;;
6497;SDS011;3282;48.358;10.958;2022-07-23T06:33:55;11.13;;;8.07;;
6497;SDS011;3282;48.358;10.958;2022-07-23T06:36:21;11.77;;;8.02;;
6497;SDS011;3282;48.358;10.958;2022-07-23T06:38:48;11.38;;;8.30;;
6497;SDS011;3282;48.358;10.958;2022-07-23T06:41:15;10.98;;;8.25;;
6497;SDS011;3282;48.358;10.958;2022-07-23T06:43:42;10.75;;;8.23;;
6497;SDS011;3282;48.358;10.958;2022-07-23T06:46:08;9.48;;;7.97;;
6497;SDS011;3282;48.358;10.958;2022-07-23T06:48:36;8.88;;;7.68;;
6497;SDS011;3282;48.358;10.958;2022-07-23T06:51:03;11.55;;;8.27;;
6497;SDS011;3282;48.358;10.958;2022-07-23T06:53:29;10.70;;;7.90;;
6497;SDS011;3282;48.358;10.958;2022-07-23T06:55:56;11.13;;;7.85;;
6497;SDS011;3282;48.358;10.958;2022-07-23T06:58:23;11.35;;;8.13;;
6497;SDS011;3282;48.358;10.958;2022-07-23T07:00:49;9.40;;;7.95;;
6497;SDS011;3282;48.358;10.958;2022-07-23T07:03:16;13.20;;;8.63;;
6497;SDS011;3282;48.358;10.958;2022-07-23T07:05:43;9.98;;;8.27;;
6497;SDS011;3282;48.358;10.958;2022-07-23T07:08:10;10.45;;;8.70;;
6497;SDS011;3282;48.358;10.958;2022-07-23T07:10:36;13.55;;;8.82;;
6497;SDS011;3282;48.358;10.958;2022-07-23T07:13:03;13.30;;;9.15;;
6497;SDS011;3282;48.358;10.958;2022-07-23T07:15:29;12.35;;;8.95;;
6497;SDS011;3282;48.358;10.958;2022-07-23T07:17:56;12.80;;;8.90;;
6497;SDS011;3282;48.358;10.958;2022-07-23T07:20:22;19.70;;;9.90;;
6497;SDS011;3282;48.358;10.958;2022-07-23T07:22:49;12.45;;;9.80;;
6497;SDS011;3282;48.358;10.958;2022-07-23T07:25:16;10.25;;;8.95;;
6497;SDS011;3282;48.358;10.958;2022-07-23T07:27:43;11.98;;;9.80;;
6497;SDS011;3282;48.358;10.958;2022-07-23T07:30:10;11.73;;;9.52;;
6497;SDS011;3282;48.358;10.958;2022-07-23T07:32:37;14.82;;;10.32;;
6497;SDS011;3282;48.358;10.958;2022-07-23T07:35:22;11.00;;;8.93;;
6497;SDS011;3282;48.358;10.958;2022-07-23T07:37:49;14.32;;;9.88;;
6497;SDS011;3282;48.358;10.958;2022-07-23T07:40:15;14.13;;;9.57;;
6497;SDS011;3282;48.358;10.958;2022-07-23T07:42:49;13.00;;;9.50;;
6497;SDS011;3282;48.358;10.958;2022-07-23T07:45:17;15.23;;;11.05;;
6497;SDS011;3282;48.358;10.958;2022-07-23T07:47:46;13.45;;;9.98;;
6497;SDS011;3282;48.358;10.958;2022-07-23T07:50:13;12.80;;;9.52;;
6497;SDS011;3282;48.358;10.958;2022-07-23T07:52:40;19.08;;;9.43;;
6497;SDS011;3282;48.358;10.958;2022-07-23T07:55:07;13.85;;;9.88;;
6497;SDS011;3282;48.358;10.958;2022-07-23T07:57:35;13.13;;;9.32;;
6497;SDS011;3282;48.358;10.958;2022-07-23T08:00:03;14.50;;;9.70;;
6497;SDS011;3282;48.358;10.958;2022-07-23T08:02:42;12.63;;;9.75;;
6497;SDS011;3282;48.358;10.958;2022-07-23T08:05:10;11.63;;;10.07;;
6497;SDS011;3282;48.358;10.958;2022-07-23T08:07:37;12.63;;;9.80;;
6497;SDS011;3282;48.358;10.958;2022-07-23T08:10:06;15.32;;;10.38;;
6497;SDS011;3282;48.358;10.958;2022-07-23T08:15:15;12.68;;;9.02;;
6497;SDS011;3282;48.358;10.958;2022-07-23T08:17:44;12.43;;;9.70;;
6497;SDS011;3282;48.358;10.958;2022-07-23T08:20:13;11.05;;;9.63;;
6497;SDS011;3282;48.358;10.958;2022-07-23T08:22:45;14.40;;;9.30;;
6497;SDS011;3282;48.358;10.958;2022-07-23T08:25:15;12.10;;;8.80;;
6497;SDS011;3282;48.358;10.958;2022-07-23T08:27:45;11.63;;;9.20;;
6497;SDS011;3282;48.358;10.958;2022-07-23T08:30:12;10.85;;;8.80;;
6497;SDS011;3282;48.358;10.958;2022-07-23T08:32:52;12.65;;;8.35;;
6497;SDS011;3282;48.358;10.958;2022-07-23T08:35:24;15.43;;;8.65;;
6497;SDS011;3282;48.358;10.958;2022-07-23T08:38:20;12.50;;;7.93;;
6497;SDS011;3282;48.358;10.958;2022-07-23T08:40:48;11.13;;;8.00;;
6497;SDS011;3282;48.358;10.958;2022-07-23T08:43:20;9.32;;;7.32;;
6497;SDS011;3282;48.358;10.958;2022-07-23T08:45:49;9.90;;;7.10;;
6497;SDS011;3282;48.358;10.958;2022-07-23T08:48:18;9.45;;;6.93;;
6497;SDS011;3282;48.358;10.958;2022-07-23T08:50:48;8.73;;;6.88;;
6497;SDS011;3282;48.358;10.958;2022-07-23T08:53:16;8.95;;;6.97;;
6497;SDS011;3282;48.358;10.958;2022-07-23T08:55:48;11.45;;;7.00;;
6497;SDS011;3282;48.358;10.958;2022-07-23T08:58:19;19.38;;;6.82;;
6497;SDS011;3282;48.358;10.958;2022-07-23T09:00:53;17.70;;;6.90;;
6497;SDS011;3282;48.358;10.958;2022-07-23T09:03:22;10.10;;;6.65;;
6497;SDS011;3282;48.358;10.958;2022-07-23T09:05:50;9.15;;;5.90;;
6497;SDS011;3282;48.358;10.958;2022-07-23T09:08:19;9.35;;;6.63;;
6497;SDS011;3282;48.358;10.958;2022-07-23T09:11:01;9.77;;;6.18;;
6497;SDS011;3282;48.358;10.958;2022-07-23T09:13:36;17.25;;;6.13;;
6497;SDS011;3282;48.358;10.958;2022-07-23T09:16:17;11.40;;;5.78;;
6497;SDS011;3282;48.358;10.958;2022-07-23T09:18:47;9.20;;;5.50;;
6497;SDS011;3282;48.358;10.958;2022-07-23T09:21:16;6.65;;;5.60;;
6497;SDS011;3282;48.358;10.958;2022-07-23T09:26:18;7.05;;;5.63;;
6497;SDS011;3282;48.358;10.958;2022-07-23T09:28:49;7.30;;;5.78;;
6497;SDS011;3282;48.358;10.958;2022-07-23T09:31:24;6.75;;;5.40;;
6497;SDS011;3282;48.358;10.958;2022-07-23T09:34:01;6.72;;;5.68;;
6497;SDS011;3282;48.358;10.958;2022-07-23T09:36:33;7.47;;;5.72;;
6497;SDS011;3282;48.358;10.958;2022-07-23T09:39:00;8.07;;;5.80;;
6497;SDS011;3282;48.358;10.958;2022-07-23T09:41:28;7.50;;;5.85;;
6497;SDS011;3282;48.358;10.958;2022-07-23T09:44:07;7.03;;;5.97;;
6497;SDS011;3282;48.358;10.958;2022-07-23T09:46:36;6.60;;;5.57;;
6497;SDS011;3282;48.358;10.958;2022-07-23T09:49:14;7.05;;;5.90;;
6497;SDS011;3282;48.358;10.958;2022-07-23T09:56:52;6.60;;;5.82;;
6497;SDS011;3282;48.358;10.958;2022-07-23T09:59:22;8.90;;;6.22;;
6497;SDS011;3282;48.358;10.958;2022-07-23T10:01:52;8.15;;;6.35;;
6497;SDS011;3282;48.358;10.958;2022-07-23T10:04:21;8.63;;;6.38;;
6497;SDS011;3282;48.358;10.958;2022-07-23T10:07:08;7.82;;;6.00;;
6497;SDS011;3282;48.358;10.958;2022-07-23T10:09:55;7.90;;;6.18;;
6497;SDS011;3282;48.358;10.958;2022-07-23T10:12:30;7.88;;;6.00;;
6497;SDS011;3282;48.358;10.958;2022-07-23T10:15:13;9.70;;;6.10;;
6497;SDS011;3282;48.358;10.958;2022-07-23T10:17:40;8.32;;;6.28;;
6497;SDS011;3282;48.358;10.958;2022-07-23T10:20:07;6.68;;;5.72;;
6497;SDS011;3282;48.358;10.958;2022-07-23T10:22:35;7.13;;;5.60;;
6497;SDS011;3282;48.358;10.958;2022-07-23T10:31:10;7.13;;;5.55;;
6497;SDS011;3282;48.358;10.958;2022-07-23T10:34:16;7.53;;;5.75;;
6497;SDS011;3282;48.358;10.958;2022-07-23T10:42:41;7.88;;;5.70;;
6497;SDS011;3282;48.358;10.958;2022-07-23T10:48:20;8.40;;;5.57;;
6497;SDS011;3282;48.358;10.958;2022-07-23T10:56:17;6.57;;;5.65;;
6497;SDS011;3282;48.358;10.958;2022-07-23T10:59:17;6.97;;;5.90;;
6497;SDS011;3282;48.358;10.958;2022-07-23T11:01:44;7.18;;;5.65;;
6497;SDS011;3282;48.358;10.958;2022-07-23T11:04:11;8.23;;;6.00;;
6497;SDS011;3282;48.358;10.958;2022-07-23T11:09:27;8.20;;;6.07;;
6497;SDS011;3282;48.358;10.958;2022-07-23T11:12:31;9.90;;;5.90;;
6497;SDS011;3282;48.358;10.958;2022-07-23T11:15:06;8.07;;;6.03;;
6497;SDS011;3282;48.358;10.958;2022-07-23T11:17:36;6.97;;;5.95;;
6497;SDS011;3282;48.358;10.958;2022-07-23T11:22:37;8.50;;;6.25;;
6497;SDS011;3282;48.358;10.958;2022-07-23T11:25:04;7.55;;;5.90;;
6497;SDS011;3282;48.358;10.958;2022-07-23T11:27:38;8.40;;;6.13;;
6497;SDS011;3282;48.358;10.958;2022-07-23T11:30:11;7.13;;;6.35;;
6497;SDS011;3282;48.358;10.958;2022-07-23T11:35:37;6.72;;;5.82;;
6497;SDS011;3282;48.358;10.958;2022-07-23T11:40:47;7.53;;;6.22;;
6497;SDS011;3282;48.358;10.958;2022-07-23T11:43:15;7.88;;;6.32;;
6497;SDS011;3282;48.358;10.958;2022-07-23T11:45:47;8.70;;;6.65;;
6497;SDS011;3282;48.358;10.958;2022-07-23T11:48:28;7.70;;;6.90;;
6497;SDS011;3282;48.358;10.958;2022-07-23T11:50:56;11.65;;;6.93;;
6497;SDS011;3282;48.358;10.958;2022-07-23T11:53:25;9.18;;;7.05;;
6497;SDS011;3282;48.358;10.958;2022-07-23T11:56:04;9.18;;;6.88;;
6497;SDS011;3282;48.358;10.958;2022-07-23T11:58:32;8.57;;;7.30;;
6497;SDS011;3282;48.358;10.958;2022-07-23T12:00:59;9.43;;;7.72;;
6497;SDS011;3282;48.358;10.958;2022-07-23T12:03:26;10.38;;;7.78;;
6497;SDS011;3282;48.358;10.958;2022-07-23T12:05:57;8.88;;;7.47;;
6497;SDS011;3282;48.358;10.958;2022-07-23T12:08:24;9.75;;;7.50;;
6497;SDS011;3282;48.358;10.958;2022-07-23T12:10:50;10.10;;;8.00;;
6497;SDS011;3282;48.358;10.958;2022-07-23T12:13:18;10.93;;;8.13;;
6497;SDS011;3282;48.358;10.958;2022-07-23T12:15:48;9.52;;;7.40;;
6497;SDS011;3282;48.358;10.958;2022-07-23T12:18:18;11.90;;;7.65;;
6497;SDS011;3282;48.358;10.958;2022-07-23T12:20:50;12.60;;;7.80;;
6497;SDS011;3282;48.358;10.958;2022-07-23T12:23:20;9.18;;;7.43;;
6497;SDS011;3282;48.358;10.958;2022-07-23T12:25:49;8.57;;;7.57;;
6497;SDS011;3282;48.358;10.958;2022-07-23T12:28:37;9.10;;;7.80;;
6497;SDS011;3282;48.358;10.958;2022-07-23T12:31:04;10.55;;;7.93;;
6497;SDS011;3282;48.358;10.958;2022-07-23T12:33:35;10.13;;;8.18;;
6497;SDS011;3282;48.358;10.958;2022-07-23T12:36:05;11.43;;;8.10;;
6497;SDS011;3282;48.358;10.958;2022-07-23T12:38:37;10.50;;;7.60;;
6497;SDS011;3282;48.358;10.958;2022-07-23T12:41:14;9.57;;;7.57;;
6497;SDS011;3282;48.358;10.958;2022-07-23T12:43:42;9.23;;;7.63;;
6497;SDS011;3282;48.358;10.958;2022-07-23T12:46:17;8.82;;;7.93;;
6497;SDS011;3282;48.358;10.958;2022-07-23T12:53:51;10.65;;;7.47;;
6497;SDS011;3282;48.358;10.958;2022-07-23T12:58:58;9.13;;;7.50;;
6497;SDS011;3282;48.358;10.958;2022-07-23T13:01:38;9.75;;;7.95;;
6497;SDS011;3282;48.358;10.958;2022-07-23T13:04:20;9.57;;;8.07;;
6497;SDS011;3282;48.358;10.958;2022-07-23T13:06:49;8.57;;;7.68;;
6497;SDS011;3282;48.358;10.958;2022-07-23T13:09:18;10.25;;;7.97;;
6497;SDS011;3282;48.358;10.958;2022-07-23T13:11:47;11.43;;;8.32;;
6497;SDS011;3282;48.358;10.958;2022-07-23T13:14:15;9.85;;;8.13;;
6497;SDS011;3282;48.358;10.958;2022-07-23T13:16:43;8.73;;;7.82;;
6497;SDS011;3282;48.358;10.958;2022-07-23T13:19:10;9.57;;;8.00;;
6497;SDS011;3282;48.358;10.958;2022-07-23T13:21:38;11.13;;;7.68;;
6497;SDS011;3282;48.358;10.958;2022-07-23T13:24:07;10.20;;;7.93;;
6497;SDS011;3282;48.358;10.958;2022-07-23T13:26:38;11.90;;;7.97;;
6497;SDS011;3282;48.358;10.958;2022-07-23T13:29:05;10.02;;;7.70;;
6497;SDS011;3282;48.358;10.958;2022-07-23T13:31:35;10.13;;;8.70;;
6497;SDS011;3282;48.358;10.958;2022-07-23T13:34:04;9.50;;;7.82;;
6497;SDS011;3282;48.358;10.958;2022-07-23T13:36:33;11.45;;;8.00;;
6497;SDS011;3282;48.358;10.958;2022-07-23T13:39:00;10.98;;;8.20;;
6497;SDS011;3282;48.358;10.958;2022-07-23T13:41:28;11.10;;;8.10;;
6497;SDS011;3282;48.358;10.958;2022-07-23T13:43:56;11.88;;;8.52;;
6497;SDS011;3282;48.358;10.958;2022-07-23T13:46:23;9.23;;;8.10;;
6497;SDS011;3282;48.358;10.958;2022-07-23T13:48:50;11.82;;;8.85;;
6497;SDS011;3282;48.358;10.958;2022-07-23T13:51:17;9.43;;;8.32;;
6497;SDS011;3282;48.358;10.958;2022-07-23T13:53:45;9.55;;;8.45;;
6497;SDS011;3282;48.358;10.958;2022-07-23T13:56:12;11.52;;;8.23;;
6497;SDS011;3282;48.358;10.958;2022-07-23T13:58:39;10.38;;;8.30;;
6497;SDS011;3282;48.358;10.958;2022-07-23T14:01:06;10.05;;;8.38;;
6497;SDS011;3282;48.358;10.958;2022-07-23T14:03:33;12.68;;;8.07;;
6497;SDS011;3282;48.358;10.958;2022-07-23T14:06:00;11.55;;;7.90;;
6497;SDS011;3282;48.358;10.958;2022-07-23T14:08:26;10.65;;;8.40;;
6497;SDS011;3282;48.358;10.958;2022-07-23T14:10:53;8.70;;;7.85;;
6497;SDS011;3282;48.358;10.958;2022-07-23T14:13:20;11.07;;;8.43;;
6497;SDS011;3282;48.358;10.958;2022-07-23T14:15:47;11.57;;;8.13;;
6497;SDS011;3282;48.358;10.958;2022-07-23T14:18:15;11.82;;;8.30;;
6497;SDS011;3282;48.358;10.958;2022-07-23T14:20:43;10.43;;;8.20;;
6497;SDS011;3282;48.358;10.958;2022-07-23T14:23:09;10.82;;;7.88;;
6497;SDS011;3282;48.358;10.958;2022-07-23T14:25:38;10.45;;;7.80;;
6497;SDS011;3282;48.358;10.958;2022-07-23T14:28:05;10.90;;;7.82;;
6497;SDS011;3282;48.358;10.958;2022-07-23T14:30:31;14.07;;;8.07;;
6497;SDS011;3282;48.358;10.958;2022-07-23T14:33:00;10.25;;;7.82;;
6497;SDS011;3282;48.358;10.958;2022-07-23T14:35:27;11.40;;;7.78;;
6497;SDS011;3282;48.358;10.958;2022-07-23T14:37:53;10.00;;;8.18;;
6497;SDS011;3282;48.358;10.958;2022-07-23T14:40:20;9.35;;;7.80;;
6497;SDS011;3282;48.358;10.958;2022-07-23T14:42:48;9.98;;;7.85;;
6497;SDS011;3282;48.358;10.958;2022-07-23T14:45:15;8.60;;;7.60;;
6497;SDS011;3282;48.358;10.958;2022-07-23T14:47:44;9.48;;;7.53;;
6497;SDS011;3282;48.358;10.958;2022-07-23T14:50:13;7.75;;;6.95;;
6497;SDS011;3282;48.358;10.958;2022-07-23T14:52:40;7.82;;;6.90;;
6497;SDS011;3282;48.358;10.958;2022-07-23T14:55:07;8.90;;;6.63;;
6497;SDS011;3282;48.358;10.958;2022-07-23T14:57:34;7.75;;;6.95;;
6497;SDS011;3282;48.358;10.958;2022-07-23T15:00:02;8.65;;;6.65;;
6497;SDS011;3282;48.358;10.958;2022-07-23T15:02:31;8.60;;;6.50;;
6497;SDS011;3282;48.358;10.958;2022-07-23T15:04:58;8.65;;;6.10;;
6497;SDS011;3282;48.358;10.958;2022-07-23T15:07:27;8.02;;;6.05;;
6497;SDS011;3282;48.358;10.958;2022-07-23T15:09:58;8.90;;;6.28;;
6497;SDS011;3282;48.358;10.958;2022-07-23T15:12:25;10.98;;;8.10;;
6497;SDS011;3282;48.358;10.958;2022-07-23T15:14:51;9.88;;;7.97;;
6497;SDS011;3282;48.358;10.958;2022-07-23T15:17:18;9.55;;;6.70;;
6497;SDS011;3282;48.358;10.958;2022-07-23T15:19:46;8.02;;;6.65;;
6497;SDS011;3282;48.358;10.958;2022-07-23T15:22:15;8.68;;;7.15;;
6497;SDS011;3282;48.358;10.958;2022-07-23T15:24:42;10.55;;;7.22;;
6497;SDS011;3282;48.358;10.958;2022-07-23T15:27:09;9.55;;;7.38;;
6497;SDS011;3282;48.358;10.958;2022-07-23T15:29:36;12.32;;;7.50;;
6497;SDS011;3282;48.358;10.958;2022-07-23T15:32:02;9.35;;;7.35;;
6497;SDS011;3282;48.358;10.958;2022-07-23T15:34:29;8.02;;;7.03;;
6497;SDS011;3282;48.358;10.958;2022-07-23T15:36:59;8.20;;;7.30;;
6497;SDS011;3282;48.358;10.958;2022-07-23T15:39:27;10.88;;;8.68;;
6497;SDS011;3282;48.358;10.958;2022-07-23T15:41:54;12.43;;;9.55;;
6497;SDS011;3282;48.358;10.958;2022-07-23T15:44:23;10.25;;;8.40;;
6497;SDS011;3282;48.358;10.958;2022-07-23T15:46:55;9.57;;;7.75;;
6497;SDS011;3282;48.358;10.958;2022-07-23T15:49:24;11.63;;;9.48;;
6497;SDS011;3282;48.358;10.958;2022-07-23T15:51:51;13.98;;;10.48;;